Time;durP1;ratioP1;P1;durP2;ratioP2;P2;SDS_P1;SDS_P2;PMS_P1;PMS_P2;Temp;Humidity;BMP_temperature;BMP_pressure;BME280_temperature;BME280_humidity;BME280_pressure;Samples;Min_cycle;Max_cycle;Signal;HPM_P1;HPM_P2
2023/10/13 00:02:01;;;;;;;8.55;6.30;;;;;;;12.57;64.13;95386.88;5055783;28;20194;-69
2023/10/13 00:04:28;;;;;;;7.00;6.30;;;;;;;12.53;64.24;95389.53;5055805;28;20200;-69
2023/10/13 00:06:57;;;;;;;6.95;5.97;;;;;;;12.51;64.03;95386.31;5055227;28;20272;-69
2023/10/13 00:09:25;;;;;;;8.75;6.10;;;;;;;12.47;64.29;95382.66;5055603;28;20197;-69
2023/10/13 00:11:56;;;;;;;7.68;6.55;;;;;;;12.44;64.32;95385.34;5055616;28;20204;-69
2023/10/13 00:14:30;;;;;;;6.43;5.63;;;;;;;12.40;64.80;95376.16;5055654;28;20213;-69
2023/10/13 00:17:05;;;;;;;6.72;6.07;;;;;;;12.37;64.83;95374.91;5054337;28;20407;-69
2023/10/13 00:19:45;;;;;;;6.28;5.68;;;;;;;12.34;64.16;95372.03;5054439;28;20202;-68
2023/10/13 00:22:16;;;;;;;8.45;6.18;;;;;;;12.31;64.45;95383.81;5054963;28;20198;-68
2023/10/13 00:24:47;;;;;;;7.25;6.45;;;;;;;12.31;64.61;95381.88;5055664;28;20209;-68
2023/10/13 00:27:40;;;;;;;7.53;6.07;;;;;;;12.32;64.50;95380.72;5055418;28;20221;-68
2023/10/13 00:32:55;;;;;;;7.18;6.47;;;;;;;12.25;65.31;95381.31;5054811;28;20312;-68
2023/10/13 00:35:28;;;;;;;7.22;6.15;;;;;;;12.29;65.54;95384.19;5055333;28;20196;-68
2023/10/13 00:37:57;;;;;;;7.07;6.38;;;;;;;12.32;65.17;95386.25;5055039;28;20586;-69
2023/10/13 00:40:51;;;;;;;7.18;6.47;;;;;;;12.35;65.11;95384.72;5055247;28;20186;-68
2023/10/13 00:43:41;;;;;;;6.97;6.35;;;;;;;12.32;64.87;95388.22;5054903;28;20284;-68
2023/10/13 00:46:07;;;;;;;7.45;6.22;;;;;;;12.26;64.46;95387.66;5055156;28;20197;-68
2023/10/13 00:48:51;;;;;;;6.70;5.78;;;;;;;12.23;64.91;95383.63;5054687;28;20241;-69
2023/10/13 00:51:32;;;;;;;6.97;5.00;;;;;;;12.22;64.47;95384.78;5055250;28;20186;-68
2023/10/13 00:54:07;;;;;;;10.05;5.75;;;;;;;12.19;64.80;95387.47;5055095;28;20201;-68
2023/10/13 00:56:40;;;;;;;6.55;5.95;;;;;;;12.13;64.89;95389.72;5053935;28;20196;-68
2023/10/13 00:59:10;;;;;;;6.75;6.05;;;;;;;12.14;64.79;95393.28;5054165;28;20628;-68
2023/10/13 01:01:37;;;;;;;6.72;6.03;;;;;;;12.14;64.61;95398.81;5054115;28;20575;-68
2023/10/13 01:04:08;;;;;;;6.38;5.78;;;;;;;12.15;64.40;95383.81;5055129;28;20196;-68
2023/10/13 01:06:37;;;;;;;7.90;5.85;;;;;;;12.13;64.35;95383.34;5054996;28;20194;-68
2023/10/13 01:09:16;;;;;;;7.22;6.40;;;;;;;12.09;64.67;95385.22;5055024;28;20178;-68
2023/10/13 01:12:04;;;;;;;9.18;5.90;;;;;;;12.03;64.80;95385.50;5052083;28;20206;-68
2023/10/13 01:14:37;;;;;;;6.38;5.70;;;;;;;12.02;64.55;95388.63;5053857;28;20644;-68
2023/10/13 01:17:03;;;;;;;7.80;5.88;;;;;;;12.00;64.58;95386.19;5053712;28;20197;-68
2023/10/13 01:19:38;;;;;;;7.65;6.03;;;;;;;12.00;64.89;95388.97;5055071;28;20210;-68
2023/10/13 01:22:06;;;;;;;6.40;5.80;;;;;;;11.99;64.74;95389.31;5054652;28;20667;-68
2023/10/13 01:24:35;;;;;;;8.00;6.28;;;;;;;11.96;64.91;95388.06;5054817;28;20237;-68
2023/10/13 01:27:16;;;;;;;6.68;5.93;;;;;;;11.94;64.97;95395.91;5053956;28;20283;-69
2023/10/13 01:29:48;;;;;;;6.53;5.93;;;;;;;11.94;65.24;95387.59;5054780;28;20185;-68
2023/10/13 01:32:15;;;;;;;8.98;6.40;;;;;;;11.90;65.65;95389.47;5056998;28;20194;-68
2023/10/13 01:34:45;;;;;;;8.52;7.63;;;;;;;11.90;65.57;95388.66;5058220;28;20213;-69
2023/10/13 01:37:15;;;;;;;6.85;6.22;;;;;;;11.88;65.33;95394.56;5059107;28;20217;-68
2023/10/13 01:39:47;;;;;;;8.27;6.57;;;;;;;11.87;65.18;95401.22;5057992;28;20204;-68
2023/10/13 01:42:19;;;;;;;6.90;6.30;;;;;;;11.89;65.24;95398.13;5057608;28;20208;-69
2023/10/13 01:44:48;;;;;;;7.32;6.18;;;;;;;11.85;65.02;95395.28;5058512;28;20247;-69
2023/10/13 01:47:16;;;;;;;7.97;6.22;;;;;;;11.81;65.09;95399.88;5057861;28;20198;-69
2023/10/13 01:49:47;;;;;;;6.90;6.10;;;;;;;11.77;65.45;95401.72;5074038;28;20665;-69
2023/10/13 01:52:15;;;;;;;6.60;6.00;;;;;;;11.75;65.62;95399.31;5058080;28;20197;-69
2023/10/13 01:54:49;;;;;;;7.18;6.00;;;;;;;11.73;65.77;95400.84;5057563;28;20543;-69
2023/10/13 01:57:17;;;;;;;7.28;6.57;;;;;;;11.74;65.53;95392.19;5057829;28;20177;-69
2023/10/13 01:59:48;;;;;;;7.10;6.40;;;;;;;11.71;65.56;95392.88;5058349;28;20241;-69
2023/10/13 02:02:14;;;;;;;7.75;6.00;;;;;;;11.70;65.39;95391.28;5058773;28;20190;-69
2023/10/13 02:04:48;;;;;;;6.80;6.10;;;;;;;11.70;65.24;95393.25;5057851;28;20524;-69
2023/10/13 02:07:15;;;;;;;9.10;6.07;;;;;;;11.63;65.54;95384.75;5057247;28;20287;-69
2023/10/13 02:09:45;;;;;;;7.10;6.13;;;;;;;11.57;65.68;95378.66;5057110;28;20202;-69
2023/10/13 02:12:11;;;;;;;6.45;5.82;;;;;;;11.53;65.63;95391.56;5057446;28;20292;-69
2023/10/13 02:14:39;;;;;;;8.52;6.32;;;;;;;11.49;66.03;95383.19;5058147;28;20305;-69
2023/10/13 02:17:12;;;;;;;7.38;6.20;;;;;;;11.49;66.12;95379.63;5057931;28;20222;-69
2023/10/13 02:19:44;;;;;;;6.72;5.95;;;;;;;11.49;66.29;95380.41;5056598;28;20637;-69
2023/10/13 02:22:24;;;;;;;7.65;6.22;;;;;;;11.51;65.90;95383.66;5040954;28;20205;-69
2023/10/13 02:24:53;;;;;;;6.93;6.18;;;;;;;11.52;66.23;95381.69;5057753;28;20189;-69
2023/10/13 02:27:23;;;;;;;8.07;6.43;;;;;;;11.45;66.52;95390.56;5074294;28;20201;-69
2023/10/13 02:29:50;;;;;;;7.40;6.57;;;;;;;11.42;66.31;95388.50;5057665;28;20229;-69
2023/10/13 02:32:19;;;;;;;7.80;6.45;;;;;;;11.43;66.28;95389.31;5056611;28;20636;-69
2023/10/13 02:34:46;;;;;;;8.52;7.43;;;;;;;11.45;66.43;95384.25;5057420;28;20209;-69
2023/10/13 02:37:14;;;;;;;7.93;6.50;;;;;;;11.42;66.43;95382.97;5090622;28;20229;-69
2023/10/13 02:39:41;;;;;;;9.73;6.75;;;;;;;11.39;66.53;95391.16;5057124;28;20212;-69
2023/10/13 02:42:22;;;;;;;9.38;6.35;;;;;;;11.38;66.33;95386.78;5057370;28;20248;-69
2023/10/13 02:44:51;;;;;;;7.68;6.47;;;;;;;11.37;66.38;95394.28;5056717;28;20216;-69
2023/10/13 02:47:19;;;;;;;9.38;7.05;;;;;;;11.36;66.85;95387.13;5057298;28;20182;-69
2023/10/13 02:49:47;;;;;;;8.60;6.45;;;;;;;11.35;66.83;95395.78;5056463;28;20240;-68
2023/10/13 02:52:15;;;;;;;8.57;7.65;;;;;;;11.32;66.72;95397.28;5057089;28;20194;-69
2023/10/13 02:54:47;;;;;;;9.00;6.70;;;;;;;11.31;66.64;95402.00;5057083;28;20217;-69
2023/10/13 02:57:17;;;;;;;7.75;6.95;;;;;;;11.29;66.55;95404.31;5055911;28;20293;-69
2023/10/13 02:59:46;;;;;;;7.57;6.78;;;;;;;11.24;66.94;95407.31;5057062;28;20260;-69
2023/10/13 03:02:25;;;;;;;8.10;6.45;;;;;;;11.24;67.19;95404.53;5056347;28;20198;-69
2023/10/13 03:04:59;;;;;;;11.38;7.13;;;;;;;11.26;67.49;95404.22;5056122;28;20263;-68
2023/10/13 03:07:28;;;;;;;7.80;7.00;;;;;;;11.29;67.08;95414.53;5056105;28;20200;-68
2023/10/13 03:09:59;;;;;;;9.77;7.28;;;;;;;11.31;66.73;95413.03;5072875;28;20205;-68
2023/10/13 03:12:33;;;;;;;9.75;7.03;;;;;;;11.30;66.60;95402.34;5089545;28;20248;-69
2023/10/13 03:15:13;;;;;;;9.95;7.07;;;;;;;11.31;66.52;95415.00;5057226;28;20206;-69
2023/10/13 03:17:43;;;;;;;7.75;7.00;;;;;;;11.28;66.81;95418.47;5055886;28;20198;-69
2023/10/13 03:20:13;;;;;;;9.85;7.28;;;;;;;11.22;66.61;95408.81;5055763;28;20215;-68
2023/10/13 03:22:44;;;;;;;10.18;7.07;;;;;;;11.22;66.47;95406.88;5056291;28;20681;-68
2023/10/13 03:25:18;;;;;;;9.52;7.65;;;;;;;11.23;66.54;95410.44;5056926;28;20186;-68
2023/10/13 03:28:01;;;;;;;9.32;7.30;;;;;;;11.23;66.45;95414.00;5056214;28;20236;-69
2023/10/13 03:30:34;;;;;;;10.48;7.43;;;;;;;11.18;66.53;95402.38;5056188;28;20198;-69
2023/10/13 03:33:07;;;;;;;10.57;7.13;;;;;;;11.16;66.57;95402.72;5055759;28;20297;-68
2023/10/13 03:35:50;;;;;;;9.05;6.97;;;;;;;11.15;66.13;95401.13;5055481;28;20213;-68
2023/10/13 03:38:19;;;;;;;8.57;7.68;;;;;;;11.09;66.31;95402.50;5055436;28;20201;-68
2023/10/13 03:40:56;;;;;;;9.82;7.78;;;;;;;11.05;66.43;95401.59;5055744;28;20186;-69
2023/10/13 03:43:29;;;;;;;10.18;7.45;;;;;;;11.01;66.72;95395.97;5056129;28;20247;-69
2023/10/13 03:46:07;;;;;;;10.00;7.35;;;;;;;10.99;66.73;95392.75;5055801;28;20204;-69
2023/10/13 03:48:51;;;;;;;8.55;6.90;;;;;;;10.98;66.95;95385.63;5055454;28;20275;-69
2023/10/13 03:51:21;;;;;;;11.57;7.93;;;;;;;10.98;66.77;95384.81;5056745;28;20235;-68
2023/10/13 03:53:56;;;;;;;11.38;7.47;;;;;;;10.99;66.62;95381.72;5054188;28;20653;-69
2023/10/13 03:56:27;;;;;;;10.75;7.93;;;;;;;10.94;67.31;95373.69;5056366;28;20185;-70
2023/10/13 03:58:58;;;;;;;10.60;7.60;;;;;;;10.93;66.99;95372.06;5055497;28;20225;-69
2023/10/13 04:01:43;;;;;;;9.93;7.45;;;;;;;10.90;66.91;95370.00;5055173;28;20284;-69
2023/10/13 04:04:11;;;;;;;9.70;8.07;;;;;;;10.91;67.39;95376.31;5055648;28;20182;-67
2023/10/13 04:15:23;;;;;;;11.05;8.65;;;;;;;10.88;67.33;95371.50;5055151;28;20661;-67
2023/10/13 04:17:52;;;;;;;12.73;8.80;;;;;;;10.89;67.79;95375.84;5055341;28;20304;-68
2023/10/13 04:20:32;;;;;;;11.32;8.65;;;;;;;10.93;67.21;95380.34;5054646;28;20206;-68
2023/10/13 04:23:26;;;;;;;11.80;9.13;;;;;;;10.95;67.38;95383.56;5086638;28;20208;-68
2023/10/13 04:26:07;;;;;;;12.95;8.32;;;;;;;10.95;67.21;95386.31;5088166;28;20248;-68
2023/10/13 04:28:55;;;;;;;9.95;8.00;;;;;;;10.95;66.96;95389.06;5088751;28;20299;-68
2023/10/13 04:34:28;;;;;;;18.13;10.32;;;;;;;10.91;67.80;95396.44;5153915;27;20294;-68
2023/10/13 04:37:22;;;;;;;14.40;10.02;;;;;;;10.94;68.08;95398.50;5133391;28;20621;-69
2023/10/13 04:39:57;;;;;;;13.70;9.50;;;;;;;10.97;68.22;95402.53;5133518;28;20176;-68
2023/10/13 04:42:39;;;;;;;16.20;9.65;;;;;;;10.96;67.86;95404.47;5134198;28;20206;-68
2023/10/13 04:45:38;;;;;;;13.82;10.82;;;;;;;10.98;68.22;95407.72;5132646;28;20569;-68
2023/10/13 04:54:11;;;;;;;13.38;9.75;;;;;;;10.98;67.92;95409.66;5133235;27;20207;-66
2023/10/13 05:00:11;;;;;;;15.95;10.35;;;;;;;11.04;67.93;95431.16;5108574;28;20233;-66
2023/10/13 05:44:55;;;;;;;11.95;9.48;;;;;;;11.39;68.36;95480.34;5124998;28;20186;-66
2023/10/13 05:50:28;;;;;;;13.18;9.80;;;;;;;11.50;68.48;95467.66;5118100;28;20298;-66
2023/10/13 06:29:07;;;;;;;10.40;9.18;;;;;;;12.26;68.62;95496.31;5117601;28;20219;-66
2023/10/13 06:31:45;;;;;;;12.60;10.55;;;;;;;12.35;68.11;95496.16;5117422;28;20200;-66
2023/10/13 06:34:16;;;;;;;17.80;12.00;;;;;;;12.43;67.96;95492.44;5117080;28;20231;-66
2023/10/13 06:36:48;;;;;;;16.77;14.68;;;;;;;12.50;67.96;95494.59;5117367;28;20191;-66
2023/10/13 06:42:16;;;;;;;19.83;14.23;;;;;;;12.66;67.60;95498.16;5081685;28;20598;-66
2023/10/13 06:44:45;;;;;;;17.38;14.13;;;;;;;12.71;67.01;95491.56;5117101;28;20207;-66
2023/10/13 06:47:21;;;;;;;15.02;13.40;;;;;;;12.76;67.01;95496.84;5116598;28;20188;-66
2023/10/13 06:49:51;;;;;;;16.67;13.43;;;;;;;12.79;66.24;95501.66;5117668;28;20184;-65
2023/10/13 06:52:19;;;;;;;16.13;13.15;;;;;;;12.85;66.35;95496.66;5116967;28;20196;-66
2023/10/13 06:54:48;;;;;;;16.15;13.32;;;;;;;12.93;66.14;95499.25;5117381;28;20278;-66
2023/10/13 06:57:20;;;;;;;16.40;12.32;;;;;;;13.04;66.03;95495.94;5115506;28;20253;-66
2023/10/13 06:59:53;;;;;;;16.02;13.10;;;;;;;13.09;65.39;95485.41;5116591;28;20282;-66
2023/10/13 07:02:33;;;;;;;18.90;13.18;;;;;;;13.19;65.40;95482.06;5117163;28;20211;-66
2023/10/13 07:05:07;;;;;;;20.65;13.57;;;;;;;13.29;65.16;95480.75;5116867;28;20215;-66
2023/10/13 07:07:38;;;;;;;19.13;14.63;;;;;;;13.36;64.91;95467.06;5117687;28;20219;-66
2023/10/13 07:10:12;;;;;;;18.60;14.32;;;;;;;13.48;64.69;95469.72;5117316;28;20188;-65
2023/10/13 07:12:43;;;;;;;19.15;13.45;;;;;;;13.61;64.74;95467.59;5117292;28;20303;-66
2023/10/13 07:15:19;;;;;;;18.70;13.27;;;;;;;13.69;64.52;95465.81;5116821;28;20198;-65
2023/10/13 07:17:59;;;;;;;16.98;13.40;;;;;;;13.80;64.16;95483.47;5116372;28;20203;-65
2023/10/13 07:20:33;;;;;;;18.52;14.13;;;;;;;13.91;63.52;95490.06;5116199;28;20203;-64
2023/10/13 07:23:06;;;;;;;18.30;14.43;;;;;;;14.04;63.18;95487.13;5116771;28;20184;-64
2023/10/13 07:25:37;;;;;;;21.70;14.68;;;;;;;14.12;63.13;95478.56;5115850;28;20195;-64
2023/10/13 07:28:10;;;;;;;19.50;15.00;;;;;;;14.20;63.05;95480.34;5099554;28;20290;-64
2023/10/13 07:30:49;;;;;;;19.02;15.77;;;;;;;14.34;62.36;95477.03;5116947;28;20290;-64
2023/10/13 07:33:26;;;;;;;20.85;14.90;;;;;;;14.48;61.58;95482.03;5116523;28;20321;-64
2023/10/13 07:36:10;;;;;;;20.25;15.30;;;;;;;14.63;61.66;95478.41;5116164;28;20184;-65
2023/10/13 07:38:42;;;;;;;19.00;15.40;;;;;;;14.75;60.73;95479.41;5116495;28;20194;-65
2023/10/13 07:41:15;;;;;;;20.70;15.93;;;;;;;14.82;60.75;95473.97;5115220;28;20199;-64
2023/10/13 07:43:44;;;;;;;18.90;15.45;;;;;;;14.88;60.58;95469.69;5116747;28;20211;-65
2023/10/13 07:46:12;;;;;;;19.65;15.55;;;;;;;14.99;60.02;95469.88;5115966;28;20285;-65
2023/10/13 07:48:45;;;;;;;23.80;16.13;;;;;;;15.12;59.39;95471.28;5116002;28;20290;-64
2023/10/13 07:51:16;;;;;;;21.20;15.52;;;;;;;15.22;59.52;95470.66;5114745;28;20211;-65
2023/10/13 07:53:43;;;;;;;18.33;15.52;;;;;;;15.33;59.01;95462.50;5115828;28;20535;-64
2023/10/13 07:56:11;;;;;;;16.23;14.48;;;;;;;15.46;59.18;95463.06;5115239;28;20203;-64
2023/10/13 07:58:52;;;;;;;18.58;14.68;;;;;;;15.55;58.29;95466.38;5116404;28;20199;-64
2023/10/13 08:01:21;;;;;;;19.20;14.93;;;;;;;15.64;58.08;95461.34;5116413;28;20187;-64
2023/10/13 08:04:09;;;;;;;19.42;13.75;;;;;;;15.71;57.74;95457.88;5116181;28;20256;-64
2023/10/13 08:06:37;;;;;;;18.67;14.38;;;;;;;15.79;57.10;95446.47;5115603;28;20210;-65
2023/10/13 08:09:29;;;;;;;19.77;14.77;;;;;;;15.89;57.26;95434.69;5114705;28;20240;-65
2023/10/13 08:11:57;;;;;;;19.35;14.95;;;;;;;16.01;57.06;95441.19;5115701;28;20172;-64
2023/10/13 08:14:29;;;;;;;17.83;14.95;;;;;;;16.12;57.29;95451.28;5114876;28;20314;-64
2023/10/13 08:16:59;;;;;;;17.08;13.77;;;;;;;16.24;57.16;95455.00;5115893;28;20200;-64
2023/10/13 08:19:39;;;;;;;18.42;14.95;;;;;;;16.35;56.63;95451.13;5115514;28;20188;-64
2023/10/13 08:22:23;;;;;;;16.40;14.25;;;;;;;16.68;55.03;95457.03;5115654;28;20522;-64
2023/10/13 08:27:48;;;;;;;20.27;14.63;;;;;;;16.94;55.37;95468.06;5114594;28;20677;-65
2023/10/13 08:30:30;;;;;;;21.20;14.77;;;;;;;17.01;55.19;95473.69;5114887;28;20672;-64
2023/10/13 08:33:16;;;;;;;15.65;13.10;;;;;;;17.03;55.19;95464.94;5115167;28;20666;-65
2023/10/13 08:36:18;;;;;;;18.02;13.88;;;;;;;17.12;55.11;95456.28;5115174;28;20199;-64
2023/10/13 08:38:52;;;;;;;17.88;13.13;;;;;;;17.24;54.89;95445.59;5114753;28;20207;-65
2023/10/13 08:41:38;;;;;;;20.23;13.43;;;;;;;17.26;54.60;95448.81;5115261;28;20195;-64
2023/10/13 08:44:09;;;;;;;17.65;13.32;;;;;;;17.30;54.09;95454.41;5114791;28;20196;-65
2023/10/13 08:49:41;;;;;;;21.05;13.23;;;;;;;17.54;53.94;95453.81;5033744;28;20193;-65
2023/10/13 08:55:39;;;;;;;17.65;12.65;;;;;;;17.51;53.44;95451.78;5115616;28;20211;-65
2023/10/13 08:58:13;;;;;;;15.38;12.07;;;;;;;17.58;54.09;95450.25;5114990;28;20241;-65
2023/10/13 09:03:38;;;;;;;19.90;12.65;;;;;;;18.04;52.87;95445.72;5114152;28;20280;-64
2023/10/13 09:06:06;;;;;;;16.33;10.88;;;;;;;18.36;52.13;95435.88;5103696;28;20199;-65
2023/10/13 09:09:04;;;;;;;15.68;9.93;;;;;;;18.61;51.78;95435.94;5114163;28;20192;-64
2023/10/13 09:12:04;;;;;;;16.45;9.45;;;;;;;18.74;50.73;95437.19;5115100;28;20586;-64
2023/10/13 09:14:43;;;;;;;16.98;10.10;;;;;;;18.82;51.14;95440.78;5114408;28;20226;-64
2023/10/13 09:17:12;;;;;;;19.20;10.65;;;;;;;19.12;50.55;95444.00;5114597;28;20212;-64
2023/10/13 09:19:55;;;;;;;14.13;8.93;;;;;;;19.33;49.09;95437.59;5116088;28;20199;-65
2023/10/13 09:22:37;;;;;;;18.52;9.52;;;;;;;19.39;48.78;95432.38;5119229;28;20278;-66
2023/10/13 09:25:14;;;;;;;14.95;8.35;;;;;;;19.52;48.96;95427.19;5118788;28;20179;-65
2023/10/13 09:27:40;;;;;;;17.02;8.38;;;;;;;19.84;47.67;95421.56;5118789;28;20599;-65
2023/10/13 09:30:18;;;;;;;15.93;9.23;;;;;;;20.07;47.53;95424.66;5118105;28;20199;-64
2023/10/13 09:32:48;;;;;;;12.93;8.57;;;;;;;20.24;46.08;95416.59;5118593;28;20267;-64
2023/10/13 09:35:18;;;;;;;14.93;7.97;;;;;;;20.28;46.06;95408.97;5118822;28;20302;-65
2023/10/13 09:37:46;;;;;;;9.70;8.00;;;;;;;20.26;45.09;95415.00;5119496;28;20188;-65
2023/10/13 09:40:34;;;;;;;12.23;8.70;;;;;;;20.34;44.90;95404.56;5118817;28;20198;-64
2023/10/13 09:43:07;;;;;;;12.73;8.40;;;;;;;20.43;44.51;95405.69;5118898;27;20192;-64
2023/10/13 09:45:39;;;;;;;15.20;8.63;;;;;;;20.41;44.86;95401.72;5118698;28;20278;-65
2023/10/13 09:48:16;;;;;;;12.02;7.40;;;;;;;20.35;43.42;95398.53;5117820;28;20202;-64
2023/10/13 09:50:46;;;;;;;10.10;6.85;;;;;;;20.25;43.29;95393.00;5115501;28;20252;-64
2023/10/13 09:53:14;;;;;;;11.25;7.32;;;;;;;20.18;43.83;95400.22;5118461;28;20180;-64
2023/10/13 09:55:50;;;;;;;8.93;6.28;;;;;;;20.21;43.88;95395.81;5118873;28;20214;-64
2023/10/13 09:58:17;;;;;;;10.30;6.45;;;;;;;20.22;42.25;95396.59;5117417;28;20607;-64
2023/10/13 10:01:07;;;;;;;9.80;6.65;;;;;;;20.46;42.93;95390.06;5117382;27;20639;-65
2023/10/13 10:03:50;;;;;;;11.93;6.45;;;;;;;20.83;42.06;95381.03;5117827;28;20217;-64
2023/10/13 10:06:28;;;;;;;10.85;6.38;;;;;;;21.05;40.88;95370.44;5118643;28;20184;-66
2023/10/13 10:09:11;;;;;;;10.52;5.70;;;;;;;21.00;40.89;95375.72;5117425;28;20195;-65
2023/10/13 10:12:19;;;;;;;10.27;6.65;;;;;;;21.12;40.02;95370.38;5118611;28;20180;-65
2023/10/13 10:15:01;;;;;;;12.00;6.20;;;;;;;21.23;40.88;95366.69;5110814;28;20219;-65
2023/10/13 10:17:33;;;;;;;8.43;6.00;;;;;;;21.19;41.63;95363.91;5118543;28;20184;-65
2023/10/13 10:20:06;;;;;;;9.20;6.15;;;;;;;21.18;40.99;95361.53;5118487;28;20187;-65
2023/10/13 10:22:36;;;;;;;7.85;6.70;;;;;;;21.21;41.15;95360.72;5117897;28;20545;-64
2023/10/13 10:25:06;;;;;;;8.98;6.22;;;;;;;21.29;40.69;95356.63;5117882;28;20194;-65
2023/10/13 10:27:36;;;;;;;10.80;6.80;;;;;;;21.35;40.23;95355.78;5118073;28;20262;-65
2023/10/13 10:30:13;;;;;;;7.20;5.70;;;;;;;21.48;40.27;95358.06;5118188;28;20202;-64
2023/10/13 10:32:48;;;;;;;9.70;6.07;;;;;;;21.73;39.45;95352.19;5110123;28;20209;-65
2023/10/13 10:35:23;;;;;;;6.57;5.72;;;;;;;21.78;38.89;95351.72;5117562;28;20215;-65
2023/10/13 10:37:51;;;;;;;7.57;5.93;;;;;;;21.80;38.47;95350.09;5117377;28;20598;-65
2023/10/13 10:43:02;;;;;;;6.70;5.63;;;;;;;21.79;39.06;95353.31;5116981;28;20187;-65
2023/10/13 10:45:35;;;;;;;9.05;5.43;;;;;;;21.82;39.04;95353.28;5117795;28;20622;-65
2023/10/13 10:48:17;;;;;;;8.88;5.63;;;;;;;21.72;37.92;95353.41;5118620;28;20184;-65
2023/10/13 10:50:47;;;;;;;11.30;5.75;;;;;;;21.66;38.31;95346.66;5117460;28;20215;-65
2023/10/13 10:53:15;;;;;;;10.57;5.88;;;;;;;21.70;39.18;95344.59;5117477;27;20203;-65
2023/10/13 10:55:45;;;;;;;8.13;5.63;;;;;;;21.74;37.94;95343.31;5116875;28;20286;-65
2023/10/13 10:58:28;;;;;;;10.05;5.20;;;;;;;21.75;37.73;95338.50;5117488;28;20214;-65
2023/10/13 11:01:22;;;;;;;7.70;4.80;;;;;;;21.78;37.88;95343.28;5117551;28;20198;-65
2023/10/13 11:04:07;;;;;;;5.63;4.55;;;;;;;21.78;37.99;95340.47;5117455;28;20481;-65
2023/10/13 11:06:42;;;;;;;8.85;4.65;;;;;;;21.83;37.67;95340.03;5116827;28;20203;-64
2023/10/13 11:09:31;;;;;;;6.03;4.82;;;;;;;21.97;37.82;95336.22;5116499;28;20199;-65
2023/10/13 11:12:15;;;;;;;6.07;4.50;;;;;;;22.00;37.12;95326.97;5116636;28;20194;-64
2023/10/13 11:14:49;;;;;;;5.40;4.25;;;;;;;22.14;37.19;95328.78;5116750;28;20204;-65
2023/10/13 11:17:26;;;;;;;7.97;3.97;;;;;;;22.15;36.87;95331.22;5116383;28;20202;-65
2023/10/13 11:19:57;;;;;;;6.95;4.03;;;;;;;22.39;36.12;95323.66;5117364;28;20191;-65
2023/10/13 11:22:36;;;;;;;5.90;3.70;;;;;;;22.57;35.48;95323.38;5116625;28;20504;-65
2023/10/13 11:25:10;;;;;;;5.05;3.47;;;;;;;22.59;34.62;95318.94;5116707;28;20625;-64
2023/10/13 11:30:49;;;;;;;6.18;3.22;;;;;;;22.86;33.81;95315.31;5097155;28;20196;-65
2023/10/13 11:33:23;;;;;;;5.75;3.67;;;;;;;22.94;34.29;95307.56;5116652;28;20239;-65
2023/10/13 11:36:02;;;;;;;5.47;3.30;;;;;;;22.88;33.52;95306.44;5116729;28;20211;-65
2023/10/13 11:38:43;;;;;;;5.70;3.83;;;;;;;22.85;33.58;95298.88;5116756;28;20553;-65
2023/10/13 11:41:16;;;;;;;3.95;2.90;;;;;;;22.88;34.43;95298.81;5116040;28;20196;-65
2023/10/13 11:49:43;;;;;;;4.50;3.10;;;;;;;23.12;33.48;95296.78;5057548;28;20592;-64
2023/10/13 11:52:26;;;;;;;4.30;3.65;;;;;;;22.99;34.74;95293.81;5115672;28;20210;-64
2023/10/13 11:54:55;;;;;;;5.28;3.33;;;;;;;22.90;34.42;95285.09;5116325;28;20224;-65
2023/10/13 11:57:24;;;;;;;5.10;3.55;;;;;;;22.88;35.34;95287.56;5115790;28;20644;-64
2023/10/13 12:00:50;;;;;;;5.03;3.78;;;;;;;22.90;34.47;95290.72;5115149;28;20203;-66
2023/10/13 12:08:49;;;;;;;4.93;3.20;;;;;;;22.98;33.87;95272.53;5116313;27;20202;-65
2023/10/13 12:11:38;;;;;;;5.15;3.33;;;;;;;22.94;33.81;95274.59;5116822;28;20192;-65
2023/10/13 12:14:20;;;;;;;5.55;3.50;;;;;;;22.85;35.10;95265.13;5116038;28;20221;-64
2023/10/13 12:16:51;;;;;;;5.38;3.28;;;;;;;22.80;34.83;95270.00;5116044;28;20187;-64
2023/10/13 12:19:23;;;;;;;6.78;3.50;;;;;;;22.88;34.78;95269.91;5116006;28;20283;-64
2023/10/13 12:21:57;;;;;;;6.15;2.80;;;;;;;23.02;33.16;95266.84;5115825;28;20267;-64
2023/10/13 12:24:39;;;;;;;3.40;3.00;;;;;;;23.06;33.03;95264.78;5115822;28;20188;-64
2023/10/13 12:27:23;;;;;;;5.35;3.28;;;;;;;22.96;34.70;95263.72;5114927;28;20210;-64
2023/10/13 12:29:53;;;;;;;4.80;2.65;;;;;;;23.02;33.28;95262.03;5116355;28;20196;-64
2023/10/13 12:32:26;;;;;;;3.65;2.67;;;;;;;23.08;33.16;95261.53;5115513;28;20206;-64
2023/10/13 12:35:22;;;;;;;6.63;3.00;;;;;;;23.16;32.73;95260.94;5115085;28;20317;-65
2023/10/13 12:38:04;;;;;;;5.07;3.20;;;;;;;23.14;33.25;95246.53;5114870;28;20235;-64
2023/10/13 12:51:54;;;;;;;4.13;2.70;;;;;;;22.83;33.98;95245.84;5115006;28;20187;-65
2023/10/13 12:54:35;;;;;;;5.57;2.78;;;;;;;22.89;33.48;95246.16;5116350;28;20242;-65
2023/10/13 12:57:09;;;;;;;3.92;2.80;;;;;;;22.86;34.34;95247.03;5119799;28;20249;-64
2023/10/13 12:59:39;;;;;;;4.05;2.70;;;;;;;22.91;32.49;95249.31;5119578;28;20230;-64
2023/10/13 13:02:14;;;;;;;4.82;2.47;;;;;;;23.01;32.89;95246.34;5119219;28;20188;-65
2023/10/13 13:04:45;;;;;;;4.88;2.72;;;;;;;23.10;32.75;95242.22;5119878;28;20198;-65
2023/10/13 13:07:15;;;;;;;4.03;2.80;;;;;;;23.01;33.01;95242.75;5119402;28;20184;-65
2023/10/13 13:09:50;;;;;;;4.35;2.90;;;;;;;23.08;31.46;95239.03;5119454;28;20252;-64
2023/10/13 13:12:19;;;;;;;5.25;2.67;;;;;;;23.19;31.78;95236.78;5118434;28;20273;-65
2023/10/13 13:14:54;;;;;;;3.20;2.90;;;;;;;23.21;32.50;95231.53;5118014;28;20220;-64
2023/10/13 13:17:26;;;;;;;4.32;2.75;;;;;;;23.19;33.00;95236.78;5119158;28;20191;-65
2023/10/13 13:19:53;;;;;;;4.72;3.53;;;;;;;23.13;33.37;95241.31;5119329;28;20221;-65
2023/10/13 13:22:24;;;;;;;5.65;3.70;;;;;;;23.07;33.37;95238.22;5119033;28;20188;-64
2023/10/13 13:24:58;;;;;;;4.22;3.15;;;;;;;23.04;33.52;95239.09;5118483;28;20304;-65
2023/10/13 13:27:29;;;;;;;5.57;3.20;;;;;;;23.11;33.38;95240.97;5117944;28;20235;-64
2023/10/13 13:29:58;;;;;;;4.25;3.05;;;;;;;23.27;32.85;95236.22;5117862;28;20192;-65
2023/10/13 13:32:30;;;;;;;6.47;3.15;;;;;;;23.65;31.54;95230.25;5118995;28;20202;-65
2023/10/13 13:35:04;;;;;;;4.57;3.22;;;;;;;23.52;32.08;95229.31;5117996;28;20339;-65
2023/10/13 13:37:37;;;;;;;3.83;3.10;;;;;;;23.49;31.89;95233.81;5118653;28;20628;-65
2023/10/13 13:40:21;;;;;;;4.82;3.05;;;;;;;24.24;30.29;95229.34;5117911;28;20484;-64
2023/10/13 13:42:52;;;;;;;4.50;3.22;;;;;;;24.56;30.99;95232.69;5117892;28;20191;-64
2023/10/13 13:45:22;;;;;;;4.32;2.53;;;;;;;25.10;29.68;95227.28;5119073;28;20221;-64
2023/10/13 13:47:54;;;;;;;4.88;2.60;;;;;;;25.52;28.90;95229.38;5117754;28;20195;-65
2023/10/13 13:50:29;;;;;;;3.70;2.55;;;;;;;25.88;28.00;95231.97;5118616;28;20198;-65
2023/10/13 13:53:00;;;;;;;4.75;3.17;;;;;;;26.14;27.67;95229.97;5118394;28;20606;-64
2023/10/13 13:55:39;;;;;;;5.43;4.28;;;;;;;26.16;27.68;95225.47;5117518;28;20222;-65
2023/10/13 13:58:09;;;;;;;4.10;3.13;;;;;;;26.00;27.63;95224.75;5117391;28;20615;-64
2023/10/13 14:00:39;;;;;;;5.55;3.25;;;;;;;25.19;28.48;95230.25;5117284;28;20184;-65
2023/10/13 14:03:12;;;;;;;4.78;3.05;;;;;;;24.49;29.47;95236.47;5118295;28;20528;-65
2023/10/13 14:05:43;;;;;;;3.75;2.90;;;;;;;23.94;30.26;95227.63;5117044;28;20194;-65
2023/10/13 14:08:16;;;;;;;4.45;2.78;;;;;;;23.60;30.50;95225.09;5117189;28;20541;-65
2023/10/13 14:16:29;;;;;;;5.50;3.05;;;;;;;22.94;31.38;95240.06;5113758;27;20542;-65
2023/10/13 14:19:01;;;;;;;7.68;3.60;;;;;;;22.84;32.01;95227.78;5113222;28;20276;-65
2023/10/13 14:21:30;;;;;;;4.13;3.17;;;;;;;22.77;31.82;95227.91;5112873;28;20346;-65
2023/10/13 14:24:00;;;;;;;6.70;3.42;;;;;;;22.67;32.38;95234.50;5111407;28;20550;-65
2023/10/13 14:26:29;;;;;;;4.25;3.10;;;;;;;22.62;32.32;95230.13;5112881;28;20226;-65
2023/10/13 14:29:01;;;;;;;4.75;3.35;;;;;;;22.58;32.79;95232.22;5112714;28;20298;-65
2023/10/13 14:31:39;;;;;;;4.78;3.38;;;;;;;22.55;32.17;95230.28;5112700;28;20207;-65
2023/10/13 14:34:07;;;;;;;8.82;3.33;;;;;;;22.48;32.90;95227.59;5111998;28;20198;-65
2023/10/13 14:36:35;;;;;;;7.80;3.30;;;;;;;22.43;33.01;95230.88;5112550;28;20195;-65
2023/10/13 14:39:02;;;;;;;5.68;3.50;;;;;;;22.32;33.49;95233.84;5111937;28;20237;-65